This is the latest recevied weather packets stored in our database for station/object OE3TEC-15. If no packets are shown the sender has not sent any weather packets the latest 10 day(s).
| Time | Temp. | Humidity | Pressure | Rain* | Wind** | Luminosity | Snow |
|---|---|---|---|---|---|---|---|
| 1777746388 | 12.78° C | 58% | 1020.7 hPa | 0 mm | - | 0 W/m² | - |
| 1777745781 | 12.78° C | 58% | 1020.5 hPa | 0 mm | - | 1 W/m² | - |
| 1777745176 | 13.89° C | 55% | 1020.4 hPa | 0 mm | - | 3 W/m² | - |
| 1777744568 | 15.56° C | 51% | 1020.3 hPa | 0 mm | - | 7 W/m² | - |
| 1777743960 | 16.67° C | 49% | 1020.3 hPa | 0 mm | - | 11 W/m² | - |
| 1777743353 | 20° C | 35% | 1020.3 hPa | 0 mm | - | 15 W/m² | - |
| 1777742746 | 22.22° C | 30% | 1020.4 hPa | 0 mm | - | 18 W/m² | - |
| 1777742138 | 22.22° C | 28% | 1020.6 hPa | 0 mm | - | 23 W/m² | - |
| 1777741531 | 22.78° C | 28% | 1020.5 hPa | 0 mm | - | 31 W/m² | - |
| 1777740924 | 23.33° C | 28% | 1020.7 hPa | 0 mm | - | 26 W/m² | - |
| 1777740316 | 23.33° C | 26% | 1020.7 hPa | 0 mm | - | 38 W/m² | - |
| 1777739709 | 23.89° C | 26% | 1020.7 hPa | 0 mm | - | 37 W/m² | - |
| 1777739103 | 23.89° C | 26% | 1020.7 hPa | 0 mm | - | 31 W/m² | - |
| 1777738496 | 23.89° C | 25% | 1020.9 hPa | 0 mm | - | 66 W/m² | - |
| 1777737888 | 23.89° C | 25% | 1021 hPa | 0 mm | - | 93 W/m² | - |
| 1777737281 | 24.44° C | 25% | 1021.1 hPa | 0 mm | - | 110 W/m² | - |
| 1777736674 | 25.56° C | 24% | 1021 hPa | 0 mm | - | 157 W/m² | - |
| 1777736066 | 25° C | 25% | 1021.3 hPa | 0 mm | - | 195 W/m² | - |
| 1777735459 | 24.44° C | 24% | 1021.3 hPa | 0 mm | - | 175 W/m² | - |
| 1777734852 | 25° C | 24% | 1021.7 hPa | 0 mm | - | 228 W/m² | - |
| 1777734244 | 25° C | 25% | 1021.6 hPa | 0 mm | - | 264 W/m² | - |
| 1777733637 | 25.56° C | 25% | 1021.7 hPa | 0 mm | - | 288 W/m² | - |
| 1777733031 | 26.11° C | 24% | 1021.7 hPa | 0 mm | - | 310 W/m² | - |
| 1777732424 | 25.56° C | 25% | 1021.8 hPa | 0 mm | - | 335 W/m² | - |
| 1777731816 | 25.56° C | 25% | 1021.8 hPa | 0 mm | - | 361 W/m² | - |
* Rain latest hour (hover to see other rain measurements)
** Current wind speed in m/s (hover to see current wind gust speed)